Time;durP1;ratioP1;P1;durP2;ratioP2;P2;SDS_P1;SDS_P2;PMS_P1;PMS_P2;Temp;Humidity;BMP_temperature;BMP_pressure;BME280_temperature;BME280_humidity;BME280_pressure;Samples;Min_cycle;Max_cycle;Signal;HPM_P1;HPM_P2
2022/09/11 00:01:08;;;;;;;6.37;3.80;;;17.50;1.00;;;;;;4987592;28;20446;-55
2022/09/11 00:03:35;;;;;;;4.43;3.70;;;17.40;1.00;;;;;;4991329;28;20528;-56
2022/09/11 00:06:09;;;;;;;4.50;4.10;;;17.40;1.00;;;;;;4986968;28;20478;-55
2022/09/11 00:08:36;;;;;;;3.70;3.40;;;17.30;1.00;;;;;;4986776;28;20447;-56
2022/09/11 00:11:06;;;;;;;4.13;3.73;;;17.30;1.00;;;;;;4992800;28;20450;-55
2022/09/11 00:13:32;;;;;;;3.87;3.57;;;17.30;1.00;;;;;;4986498;28;20485;-55
2022/09/11 00:15:58;;;;;;;4.30;3.90;;;17.30;1.00;;;;;;4980876;28;20457;-54
2022/09/11 00:18:23;;;;;;;3.87;3.47;;;17.40;1.00;;;;;;4988437;28;20622;-54
2022/09/11 00:20:50;;;;;;;3.70;3.40;;;17.30;1.00;;;;;;4990261;28;20197;-56
2022/09/11 00:23:20;;;;;;;5.50;3.63;;;17.30;1.00;;;;;;4988995;28;20729;-54
2022/09/11 00:25:47;;;;;;;3.47;3.23;;;17.40;1.00;;;;;;4991486;28;20775;-56
2022/09/11 00:28:15;;;;;;;4.10;3.70;;;17.20;1.00;;;;;;4990685;28;20486;-56
2022/09/11 00:30:46;;;;;;;4.60;4.10;;;17.20;1.00;;;;;;4986549;28;20548;-57
2022/09/11 00:33:13;;;;;;;3.83;3.20;;;17.10;1.00;;;;;;4985306;28;20444;-55
2022/09/11 00:35:40;;;;;;;2.73;2.53;;;17.10;1.00;;;;;;4982373;28;20412;-54
2022/09/11 00:38:08;;;;;;;3.90;3.37;;;17.00;1.00;;;;;;4983717;28;20780;-55
2022/09/11 00:40:45;;;;;;;4.20;3.33;;;17.00;1.00;;;;;;4988738;28;20480;-55
2022/09/11 00:43:15;;;;;;;4.00;3.30;;;17.00;1.00;;;;;;4966964;28;20491;-56
2022/09/11 00:45:42;;;;;;;5.23;3.47;;;16.90;1.00;;;;;;4988681;28;20446;-54
2022/09/11 00:48:09;;;;;;;4.37;3.73;;;16.90;1.00;;;;;;4988480;28;20475;-55
2022/09/11 00:50:35;;;;;;;3.67;3.37;;;16.90;1.00;;;;;;4988101;28;20807;-55
2022/09/11 00:53:06;;;;;;;3.30;3.10;;;17.00;1.00;;;;;;4982320;28;20450;-55
2022/09/11 00:55:36;;;;;;;3.73;2.73;;;17.10;1.00;;;;;;4986955;28;20273;-54
2022/09/11 00:58:06;;;;;;;3.30;3.10;;;17.10;1.00;;;;;;4984352;28;20457;-54
2022/09/11 01:00:32;;;;;;;2.90;2.57;;;17.30;1.00;;;;;;4989428;28;20464;-54
2022/09/11 01:02:57;;;;;;;3.00;2.30;;;17.50;1.00;;;;;;4988209;28;20531;-53
2022/09/11 01:05:27;;;;;;;3.97;2.80;;;17.50;1.00;;;;;;4991283;28;20194;-55
2022/09/11 01:07:54;;;;;;;6.30;3.10;;;17.50;1.00;;;;;;4983991;28;20481;-56
2022/09/11 01:10:44;;;;;;;3.37;3.07;;;17.50;1.00;;;;;;4985444;28;20461;-55
2022/09/11 01:13:33;;;;;;;3.90;2.67;;;17.50;1.00;;;;;;4983866;28;20437;-54
2022/09/11 01:16:33;;;;;;;4.67;3.00;;;17.40;1.00;;;;;;4989213;28;20445;-54
2022/09/11 01:19:43;;;;;;;2.87;2.57;;;17.30;1.00;;;;;;4979085;28;20536;-54
2022/09/11 01:22:30;;;;;;;4.13;2.70;;;13.30;1.00;;;;;;4984748;28;20837;-54
2022/09/11 01:25:11;;;;;;;3.03;2.73;;;17.20;1.00;;;;;;4985807;28;20436;-54
2022/09/11 01:28:10;;;;;;;2.90;2.70;;;17.10;1.00;;;;;;4987165;28;21588;-54
2022/09/11 01:30:40;;;;;;;10.43;3.17;;;17.00;1.00;;;;;;4985378;28;20789;-54
2022/09/11 01:33:44;;;;;;;6.20;2.60;;;16.90;1.00;;;;;;4983085;28;20807;-55
2022/09/11 01:36:34;;;;;;;2.93;2.73;;;16.90;1.00;;;;;;4985062;28;20489;-55
2022/09/11 01:39:02;;;;;;;3.10;2.90;;;16.90;1.00;;;;;;4986921;28;20552;-55
2022/09/11 01:41:31;;;;;;;3.20;2.90;;;16.90;1.00;;;;;;4987912;28;20519;-54
2022/09/11 01:44:05;;;;;;;5.33;3.37;;;16.80;1.00;;;;;;4989774;28;20412;-54
2022/09/11 01:46:41;;;;;;;3.47;3.17;;;16.90;1.00;;;;;;4987458;28;20428;-53
2022/09/11 01:49:11;;;;;;;5.00;3.20;;;17.00;1.00;;;;;;4988557;28;20468;-55
2022/09/11 01:51:39;;;;;;;2.83;2.63;;;17.00;1.00;;;;;;4985845;28;20496;-53
2022/09/11 01:54:15;;;;;;;3.40;3.10;;;17.00;1.00;;;;;;4983344;28;20501;-55
2022/09/11 01:56:47;;;;;;;3.63;3.13;;;16.80;1.00;;;;;;4987874;28;21018;-54
2022/09/11 01:59:16;;;;;;;3.40;3.10;;;16.90;1.00;;;;;;4984191;28;20464;-55
2022/09/11 02:01:49;;;;;;;4.03;3.07;;;16.90;1.00;;;;;;4984533;28;20929;-55
2022/09/11 02:04:24;;;;;;;3.17;2.90;;;16.90;1.00;;;;;;4986115;28;20424;-55
2022/09/11 02:07:02;;;;;;;3.13;2.93;;;17.00;1.00;;;;;;4985497;28;20773;-53
2022/09/11 02:09:40;;;;;;;3.90;3.20;;;16.90;1.00;;;;;;4988884;28;20447;-54
2022/09/11 02:12:11;;;;;;;2.80;2.60;;;16.90;1.00;;;;;;4986393;28;21011;-56
2022/09/11 02:14:43;;;;;;;3.83;3.20;;;16.80;1.00;;;;;;4986642;28;20428;-54
2022/09/11 02:17:21;;;;;;;4.50;2.90;;;16.70;1.00;;;;;;4989564;28;20424;-53
2022/09/11 02:19:48;;;;;;;5.37;3.23;;;16.70;1.00;;;;;;4987126;28;20540;-56
2022/09/11 02:22:13;;;;;;;3.23;2.70;;;16.60;1.00;;;;;;4983216;28;20519;-56
2022/09/11 02:24:39;;;;;;;3.93;3.50;;;16.60;1.00;;;;;;4985236;28;20531;-55
2022/09/11 02:27:07;;;;;;;3.70;3.40;;;16.60;1.00;;;;;;4986423;28;20450;-54
2022/09/11 02:29:33;;;;;;;2.87;2.67;;;16.60;1.00;;;;;;4984876;28;20214;-55
2022/09/11 02:32:00;;;;;;;5.17;2.90;;;16.60;1.00;;;;;;4984261;28;20548;-53
2022/09/11 02:34:28;;;;;;;4.53;3.27;;;16.60;1.00;;;;;;4988442;28;21007;-55
2022/09/11 02:37:20;;;;;;;3.47;3.17;;;16.70;1.00;;;;;;4972807;28;20991;-54
2022/09/11 02:40:09;;;;;;;5.10;3.00;;;16.60;1.00;;;;;;4989664;28;20473;-55
2022/09/11 02:42:46;;;;;;;4.90;3.40;;;16.60;1.00;;;;;;4989051;28;21000;-54
2022/09/11 02:45:30;;;;;;;3.17;2.87;;;16.60;1.00;;;;;;4981713;28;20440;-53
2022/09/11 02:48:16;;;;;;;3.67;3.37;;;16.50;1.00;;;;;;4987943;28;20419;-55
2022/09/11 02:50:49;;;;;;;3.13;2.93;;;16.50;1.00;;;;;;4987334;28;20423;-55
2022/09/11 02:53:38;;;;;;;3.60;3.30;;;16.50;1.00;;;;;;4985292;28;20449;-55
2022/09/11 02:56:13;;;;;;;3.47;3.17;;;16.50;1.00;;;;;;4984460;28;20460;-56
2022/09/11 02:58:56;;;;;;;3.50;3.20;;;16.50;1.00;;;;;;4984714;28;20788;-54
2022/09/11 03:01:22;;;;;;;3.00;2.70;;;16.50;1.00;;;;;;4987190;28;20510;-54
2022/09/11 03:03:48;;;;;;;4.53;3.90;;;16.40;1.00;;;;;;4989540;28;20810;-55
2022/09/11 03:06:20;;;;;;;7.10;3.63;;;16.40;1.00;;;;;;4985670;28;20442;-53
2022/09/11 03:08:46;;;;;;;5.40;3.67;;;16.40;1.00;;;;;;4985206;28;20479;-54
2022/09/11 03:11:16;;;;;;;3.67;3.37;;;16.30;1.00;;;;;;4987542;28;20913;-56
2022/09/11 03:13:43;;;;;;;4.13;3.50;;;16.30;1.00;;;;;;4987804;28;20449;-55
2022/09/11 03:16:09;;;;;;;3.60;3.30;;;16.30;1.00;;;;;;4980358;28;20441;-54
2022/09/11 03:18:35;;;;;;;4.17;3.77;;;16.10;1.00;;;;;;4988625;28;20472;-55
2022/09/11 03:21:02;;;;;;;4.27;3.70;;;16.20;1.00;;;;;;4990269;28;20445;-56
2022/09/11 03:23:30;;;;;;;5.17;3.50;;;16.10;1.00;;;;;;4990142;28;20487;-54
2022/09/11 03:25:57;;;;;;;3.50;3.20;;;16.10;1.00;;;;;;4986613;28;20440;-55
2022/09/11 03:28:23;;;;;;;4.30;3.93;;;16.10;1.00;;;;;;4990975;28;20549;-56
2022/09/11 03:30:49;;;;;;;4.50;4.10;;;16.00;1.00;;;;;;4989094;28;20425;-56
2022/09/11 03:33:16;;;;;;;4.07;3.77;;;16.10;1.00;;;;;;4988377;28;20383;-54
2022/09/11 03:35:43;;;;;;;5.43;3.30;;;16.00;1.00;;;;;;4991646;28;20471;-53
2022/09/11 03:38:09;;;;;;;4.30;4.00;;;16.00;1.00;;;;;;4990759;28;20934;-55
2022/09/11 03:40:34;;;;;;;4.63;4.23;;;16.00;1.00;;;;;;4992877;28;20460;-56
2022/09/11 03:43:01;;;;;;;4.67;4.27;;;16.00;1.00;;;;;;4989333;28;20236;-54
2022/09/11 03:45:27;;;;;;;5.17;4.70;;;16.10;1.00;;;;;;4990042;28;20269;-54
2022/09/11 03:47:53;;;;;;;4.40;4.00;;;16.10;1.00;;;;;;4974684;28;20457;-56
2022/09/11 03:50:19;;;;;;;4.37;3.97;;;16.10;1.00;;;;;;4987851;28;20453;-57
2022/09/11 03:52:44;;;;;;;4.50;4.10;;;16.10;1.00;;;;;;4991835;28;21023;-54
2022/09/11 03:55:10;;;;;;;5.80;4.30;;;16.00;1.00;;;;;;4984428;28;20665;-53
2022/09/11 03:57:37;;;;;;;4.30;3.90;;;16.00;1.00;;;;;;4982726;28;20221;-53
2022/09/11 04:00:04;;;;;;;4.40;4.00;;;16.00;1.00;;;;;;4986584;28;20461;-55
2022/09/11 04:02:30;;;;;;;4.93;4.10;;;15.90;1.00;;;;;;4981326;28;20486;-54
2022/09/11 04:04:56;;;;;;;4.50;4.20;;;15.90;1.00;;;;;;4982991;28;20786;-57
2022/09/11 04:07:22;;;;;;;4.40;4.00;;;15.90;1.00;;;;;;4982830;28;20427;-55
2022/09/11 04:09:48;;;;;;;5.27;3.83;;;15.80;1.00;;;;;;4980759;28;20456;-56
2022/09/11 04:12:14;;;;;;;4.20;3.80;;;15.80;1.00;;;;;;4983699;28;20572;-55
2022/09/11 04:14:40;;;;;;;4.37;3.97;;;15.80;1.00;;;;;;4983007;28;20236;-53
2022/09/11 04:17:07;;;;;;;4.80;4.37;;;15.80;1.00;;;;;;4983701;28;20455;-55
2022/09/11 04:19:33;;;;;;;4.37;4.03;;;15.80;1.00;;;;;;4982168;28;20441;-56
2022/09/11 04:21:58;;;;;;;4.40;4.00;;;15.80;1.00;;;;;;4977859;28;20420;-55
2022/09/11 04:24:24;;;;;;;5.93;4.10;;;15.80;1.00;;;;;;4981392;28;20780;-53
2022/09/11 04:26:50;;;;;;;7.37;4.60;;;15.70;1.00;;;;;;4982706;28;20190;-54
2022/09/11 04:29:16;;;;;;;4.53;3.53;;;15.70;1.00;;;;;;4983575;28;20782;-53
2022/09/11 04:31:42;;;;;;;7.23;4.70;;;15.70;1.00;;;;;;4984868;28;20182;-54
2022/09/11 04:34:08;;;;;;;4.60;4.20;;;15.70;1.00;;;;;;4984923;28;20424;-55
2022/09/11 04:36:34;;;;;;;5.17;4.67;;;15.70;1.00;;;;;;4979686;28;20445;-54
2022/09/11 04:38:59;;;;;;;5.77;5.30;;;15.80;1.00;;;;;;4980496;28;20817;-53
2022/09/11 04:41:27;;;;;;;6.20;4.60;;;15.80;1.00;;;;;;4986029;28;20761;-54
2022/09/11 04:43:55;;;;;;;6.03;4.37;;;16.00;1.00;;;;;;4991940;28;20231;-54
2022/09/11 04:46:22;;;;;;;5.33;4.83;;;16.10;1.00;;;;;;4987399;28;20423;-56
2022/09/11 04:48:51;;;;;;;6.40;4.30;;;16.10;1.00;;;;;;4987424;28;21548;-56
2022/09/11 04:51:22;;;;;;;4.10;3.80;;;16.20;1.00;;;;;;4985839;28;20427;-53
2022/09/11 04:53:48;;;;;;;4.50;4.10;;;16.20;1.00;;;;;;4987031;28;20504;-54
2022/09/11 04:56:14;;;;;;;6.07;3.90;;;16.30;1.00;;;;;;4984414;28;20774;-57
2022/09/11 04:58:41;;;;;;;5.90;4.00;;;16.40;1.00;;;;;;4983987;28;20454;-55
2022/09/11 05:01:09;;;;;;;5.03;4.47;;;16.30;1.00;;;;;;4981937;28;20462;-54
2022/09/11 05:03:34;;;;;;;6.40;3.80;;;16.40;1.00;;;;;;4989501;28;20428;-54
2022/09/11 05:06:09;;;;;;;6.83;4.37;;;16.50;1.00;;;;;;4983673;28;20987;-56
2022/09/11 05:08:38;;;;;;;6.60;5.90;;;16.50;1.00;;;;;;4986690;28;20319;-52
2022/09/11 05:11:10;;;;;;;5.37;4.87;;;16.60;1.00;;;;;;4989432;28;20420;-52
2022/09/11 05:13:36;;;;;;;4.80;4.40;;;16.60;1.00;;;;;;4987981;28;20502;-57
2022/09/11 05:16:07;;;;;;;5.33;4.37;;;16.70;1.00;;;;;;4987518;28;20530;-54
2022/09/11 05:18:33;;;;;;;5.50;5.00;;;16.80;1.00;;;;;;4995951;28;20604;-52
2022/09/11 05:21:17;;;;;;;5.40;4.90;;;17.00;1.00;;;;;;4989583;28;20452;-54
2022/09/11 05:23:47;;;;;;;6.30;5.20;;;17.00;1.00;;;;;;4971478;28;20213;-56
2022/09/11 05:26:15;;;;;;;5.80;5.30;;;17.00;1.00;;;;;;4989102;28;20807;-54
2022/09/11 05:28:41;;;;;;;5.13;4.63;;;16.90;1.00;;;;;;4989336;28;20486;-56
2022/09/11 05:31:15;;;;;;;8.03;5.23;;;16.90;1.00;;;;;;4988708;28;20507;-54
2022/09/11 05:33:42;;;;;;;6.07;5.50;;;16.90;1.00;;;;;;4989867;28;20729;-55
2022/09/11 05:36:08;;;;;;;5.93;5.40;;;16.80;1.00;;;;;;4989214;28;20450;-54
2022/09/11 05:38:35;;;;;;;6.20;5.60;;;16.80;1.00;;;;;;4987107;28;20476;-55
2022/09/11 05:41:04;;;;;;;6.53;5.00;;;16.70;1.00;;;;;;4990578;28;20461;-54
2022/09/11 05:43:30;;;;;;;7.40;5.20;;;16.80;1.00;;;;;;4988038;28;20432;-52
2022/09/11 05:45:57;;;;;;;5.60;5.10;;;16.80;1.00;;;;;;4987750;28;20428;-55
2022/09/11 05:48:23;;;;;;;6.10;5.60;;;16.80;1.00;;;;;;4988771;28;21006;-55
2022/09/11 05:51:15;;;;;;;7.13;5.60;;;16.80;1.00;;;;;;4989145;28;20463;-55
2022/09/11 05:53:41;;;;;;;6.13;5.63;;;16.90;1.00;;;;;;4989322;28;20187;-53
2022/09/11 05:56:09;;;;;;;5.50;5.00;;;17.00;1.00;;;;;;4986467;28;20448;-54
2022/09/11 05:58:35;;;;;;;5.87;5.27;;;17.00;1.00;;;;;;4988804;28;20455;-55
2022/09/11 06:01:08;;;;;;;5.17;4.67;;;17.00;1.00;;;;;;4983559;28;20497;-53
2022/09/11 06:03:35;;;;;;;6.37;5.73;;;17.10;1.00;;;;;;4986596;28;20485;-54
2022/09/11 06:06:05;;;;;;;6.60;5.90;;;17.10;1.00;;;;;;4987826;28;20449;-54
2022/09/11 06:08:33;;;;;;;7.00;6.30;;;17.10;1.00;;;;;;4985951;28;20483;-57
2022/09/11 06:11:01;;;;;;;6.13;5.53;;;17.10;1.00;;;;;;4987685;28;20778;-53
2022/09/11 06:13:32;;;;;;;6.20;5.60;;;17.00;1.00;;;;;;4987103;28;20976;-54
2022/09/11 06:15:58;;;;;;;6.00;5.40;;;17.30;1.00;;;;;;4990494;28;20490;-53
2022/09/11 06:18:24;;;;;;;10.17;6.60;;;17.60;1.00;;;;;;4988301;28;20515;-56
2022/09/11 06:21:01;;;;;;;6.77;6.00;;;17.80;1.00;;;;;;4986975;28;20499;-55
2022/09/11 06:23:27;;;;;;;7.17;6.50;;;18.10;1.00;;;;;;4988789;28;20213;-55
2022/09/11 06:25:53;;;;;;;6.90;6.20;;;18.30;1.00;;;;;;4988836;28;20468;-55
2022/09/11 06:28:22;;;;;;;7.33;6.50;;;18.40;1.00;;;;;;4987734;28;20210;-54
2022/09/11 06:30:51;;;;;;;8.50;6.53;;;18.20;1.00;;;;;;4987761;28;20837;-54
2022/09/11 06:33:19;;;;;;;7.77;6.90;;;18.10;1.00;;;;;;4989263;28;20790;-54
2022/09/11 06:36:03;;;;;;;7.43;6.63;;;18.10;1.00;;;;;;4983668;28;20424;-55
2022/09/11 06:38:32;;;;;;;7.13;6.50;;;18.00;1.00;;;;;;4986171;28;20435;-52
2022/09/11 06:41:05;;;;;;;9.03;6.83;;;18.00;1.00;;;;;;4986923;28;20494;-55
2022/09/11 06:43:31;;;;;;;9.67;7.90;;;18.10;1.00;;;;;;4987892;28;20457;-55
2022/09/11 06:46:11;;;;;;;8.40;7.60;;;18.00;1.00;;;;;;4986656;28;20483;-54
2022/09/11 06:48:38;;;;;;;8.47;7.63;;;17.80;1.00;;;;;;4988413;28;20463;-55
2022/09/11 06:51:05;;;;;;;8.90;8.00;;;17.60;1.00;;;;;;4968793;28;20474;-55
2022/09/11 06:53:31;;;;;;;9.40;8.13;;;17.70;1.00;;;;;;4989241;28;20423;-54
2022/09/11 06:56:01;;;;;;;9.07;8.17;;;17.90;1.00;;;;;;4991155;28;20554;-54
2022/09/11 06:58:28;;;;;;;8.90;8.00;;;18.00;1.00;;;;;;4991159;28;20636;-54
2022/09/11 07:00:54;;;;;;;11.93;9.43;;;17.80;1.00;;;;;;4992813;28;20551;-55
2022/09/11 07:03:20;;;;;;;10.23;9.23;;;17.60;1.00;;;;;;4990388;28;20793;-55
2022/09/11 07:05:46;;;;;;;9.83;8.83;;;17.60;1.00;;;;;;4990804;28;20449;-54
2022/09/11 07:08:11;;;;;;;11.13;9.90;;;17.50;1.00;;;;;;4990417;28;20623;-56
2022/09/11 07:10:37;;;;;;;10.30;9.40;;;17.60;1.00;;;;;;4988106;28;20427;-55
2022/09/11 07:13:03;;;;;;;9.57;8.67;;;17.70;1.00;;;;;;4989829;28;20661;-54
2022/09/11 07:15:30;;;;;;;9.97;8.97;;;17.80;1.00;;;;;;4992332;28;20596;-53
2022/09/11 07:17:57;;;;;;;10.70;9.70;;;17.90;1.00;;;;;;4993880;28;20201;-53
2022/09/11 07:20:22;;;;;;;10.70;9.67;;;18.00;1.00;;;;;;4990852;28;20458;-54
2022/09/11 07:22:48;;;;;;;11.60;10.53;;;17.90;1.00;;;;;;4991203;28;20415;-56
2022/09/11 07:25:14;;;;;;;10.70;9.77;;;17.90;1.00;;;;;;4990525;28;20256;-55
2022/09/11 07:27:39;;;;;;;11.37;10.20;;;18.00;1.00;;;;;;4989294;28;20213;-55
2022/09/11 07:30:06;;;;;;;12.40;10.93;;;18.00;1.00;;;;;;4987077;28;20221;-56
2022/09/11 07:32:31;;;;;;;11.53;10.43;;;18.00;1.00;;;;;;4993149;28;20209;-55
2022/09/11 07:34:57;;;;;;;13.20;10.97;;;17.90;1.00;;;;;;4990210;28;20454;-55
2022/09/11 07:37:23;;;;;;;12.40;10.67;;;18.00;1.00;;;;;;4970122;28;20238;-54
2022/09/11 07:39:49;;;;;;;11.87;10.77;;;18.10;1.00;;;;;;4990536;28;20277;-56
2022/09/11 07:42:14;;;;;;;10.93;9.77;;;18.00;1.00;;;;;;4988561;28;20234;-56
2022/09/11 07:44:40;;;;;;;10.03;9.13;;;18.10;1.00;;;;;;4989276;28;20428;-55
2022/09/11 07:47:05;;;;;;;10.50;9.60;;;18.30;1.00;;;;;;4990673;28;20281;-55
2022/09/11 07:49:31;;;;;;;10.17;9.03;;;18.60;1.00;;;;;;4991375;28;20241;-55
2022/09/11 07:51:58;;;;;;;8.90;8.00;;;18.60;1.00;;;;;;4989626;28;20199;-54
2022/09/11 07:54:26;;;;;;;9.70;8.60;;;18.80;1.00;;;;;;4989155;28;20179;-53
2022/09/11 07:56:51;;;;;;;9.37;8.47;;;19.10;1.00;;;;;;4989761;28;20428;-52
2022/09/11 07:59:17;;;;;;;8.30;7.50;;;19.10;1.00;;;;;;4991521;28;20935;-55
2022/09/11 08:01:43;;;;;;;9.70;8.70;;;19.00;1.00;;;;;;4991422;28;20194;-54
2022/09/11 08:04:10;;;;;;;7.83;7.13;;;19.10;1.00;;;;;;4991125;28;20186;-56
2022/09/11 08:06:37;;;;;;;8.20;7.40;;;19.00;1.00;;;;;;4988320;28;20470;-54
2022/09/11 08:09:13;;;;;;;8.90;8.10;;;19.20;1.00;;;;;;4990531;28;21028;-55
2022/09/11 08:11:47;;;;;;;7.33;6.73;;;19.80;1.00;;;;;;4990621;28;20787;-53
2022/09/11 08:14:16;;;;;;;9.20;7.70;;;19.80;1.00;;;;;;4988721;28;20785;-54
2022/09/11 08:16:42;;;;;;;9.23;8.03;;;19.90;1.00;;;;;;4988810;28;20417;-53
2022/09/11 08:19:16;;;;;;;8.97;8.20;;;19.90;1.00;;;;;;4991080;28;20424;-55
2022/09/11 08:21:42;;;;;;;8.70;7.83;;;19.50;1.00;;;;;;4988760;28;20458;-55
2022/09/11 08:24:10;;;;;;;8.53;7.77;;;19.50;1.00;;;;;;4993100;28;20482;-54
2022/09/11 08:26:36;;;;;;;7.50;6.90;;;19.50;1.00;;;;;;4992213;28;20464;-52
2022/09/11 08:29:01;;;;;;;8.47;7.57;;;19.40;1.00;;;;;;4987894;28;20475;-55
2022/09/11 08:31:28;;;;;;;9.10;8.20;;;19.30;1.00;;;;;;4987794;28;20182;-55
2022/09/11 08:33:54;;;;;;;9.13;8.00;;;19.30;1.00;;;;;;4973770;28;20424;-55
2022/09/11 08:36:20;;;;;;;7.90;7.20;;;19.10;1.00;;;;;;4981780;28;20445;-57
2022/09/11 08:38:46;;;;;;;8.57;7.77;;;18.90;1.00;;;;;;4991081;28;21064;-52
2022/09/11 08:41:34;;;;;;;9.87;7.83;;;18.90;1.00;;;;;;4981222;28;20453;-54
2022/09/11 08:44:09;;;;;;;10.30;9.40;;;19.00;1.00;;;;;;4989858;28;20461;-54
2022/09/11 08:46:43;;;;;;;12.13;10.03;;;19.00;1.00;;;;;;4988080;28;20419;-54
2022/09/11 08:49:25;;;;;;;9.50;8.60;;;19.00;1.00;;;;;;4985165;28;20478;-56
2022/09/11 08:51:55;;;;;;;9.23;8.43;;;19.10;1.00;;;;;;4986854;28;20426;-53
2022/09/11 08:54:32;;;;;;;9.57;8.67;;;19.00;1.00;;;;;;4989182;28;20452;-57
2022/09/11 08:57:15;;;;;;;12.00;10.80;;;18.90;1.00;;;;;;4981804;28;20492;-55
2022/09/11 09:00:19;;;;;;;13.57;10.70;;;18.90;1.00;;;;;;4986657;28;20465;-53
2022/09/11 09:03:08;;;;;;;12.60;10.37;;;18.90;1.00;;;;;;4986470;28;20941;-53
2022/09/11 09:06:11;;;;;;;14.10;12.70;;;18.90;1.00;;;;;;4985524;28;20971;-55
2022/09/11 09:08:48;;;;;;;14.23;12.77;;;18.90;1.00;;;;;;4986107;28;20435;-55
2022/09/11 09:11:27;;;;;;;15.17;13.17;;;19.00;1.00;;;;;;4979785;28;20448;-51
2022/09/11 09:14:01;;;;;;;14.63;13.20;;;19.10;1.00;;;;;;4984651;28;20472;-54
2022/09/11 09:16:45;;;;;;;14.07;12.67;;;19.10;1.00;;;;;;4977968;28;20441;-53
2022/09/11 09:19:40;;;;;;;16.07;14.37;;;19.10;1.00;;;;;;4975785;28;21089;-54
2022/09/11 09:22:19;;;;;;;16.47;14.73;;;19.30;1.00;;;;;;4982986;28;20458;-54
2022/09/11 09:24:52;;;;;;;15.43;13.93;;;19.40;1.00;;;;;;4981772;28;20595;-54
2022/09/11 09:27:24;;;;;;;17.60;15.80;;;19.30;1.00;;;;;;4986173;28;20457;-56
2022/09/11 09:29:56;;;;;;;19.70;14.83;;;19.40;1.00;;;;;;4990163;28;20524;-55
2022/09/11 09:32:40;;;;;;;17.63;15.90;;;19.30;1.00;;;;;;4986234;28;20477;-54
2022/09/11 09:35:15;;;;;;;17.60;16.00;;;19.20;1.00;;;;;;4985510;28;20435;-55
2022/09/11 09:37:41;;;;;;;19.47;17.37;;;19.10;1.00;;;;;;4987657;28;20514;-54
2022/09/11 09:40:09;;;;;;;16.67;15.17;;;19.30;1.00;;;;;;4983714;28;20520;-55
2022/09/11 09:43:11;;;;;;;16.67;15.03;;;19.40;1.00;;;;;;4986198;28;20268;-55
2022/09/11 09:45:43;;;;;;;18.40;16.57;;;19.40;1.00;;;;;;4983553;28;20791;-53
2022/09/11 09:48:10;;;;;;;18.10;16.20;;;19.40;1.00;;;;;;4981699;28;20453;-54
2022/09/11 09:50:39;;;;;;;16.53;15.10;;;19.40;1.00;;;;;;4981231;28;21638;-56
2022/09/11 09:53:23;;;;;;;18.40;16.60;;;19.30;1.00;;;;;;4986421;28;20444;-53
2022/09/11 09:55:50;;;;;;;19.07;17.37;;;19.40;1.00;;;;;;4986112;28;20846;-56
2022/09/11 09:58:17;;;;;;;18.97;17.10;;;19.40;1.00;;;;;;4984742;28;20442;-53
2022/09/11 10:00:42;;;;;;;19.30;17.47;;;19.30;1.00;;;;;;4986666;28;20449;-54
2022/09/11 10:03:21;;;;;;;18.53;16.73;;;19.20;1.00;;;;;;4983404;28;20516;-55
2022/09/11 10:05:49;;;;;;;20.10;17.93;;;19.20;1.00;;;;;;4980038;28;20521;-52
2022/09/11 10:08:25;;;;;;;21.73;19.27;;;19.20;1.00;;;;;;4985216;28;20930;-55
2022/09/11 10:11:05;;;;;;;19.10;17.30;;;19.20;1.00;;;;;;4981615;28;20490;-54
2022/09/11 10:13:33;;;;;;;21.27;19.27;;;17.80;1.00;;;;;;4984502;28;20454;-53
2022/09/11 10:16:02;;;;;;;21.23;18.70;;;19.00;1.00;;;;;;4982691;28;20740;-56
2022/09/11 10:18:32;;;;;;;21.57;19.47;;;18.80;1.00;;;;;;4980113;28;20480;-54
2022/09/11 10:21:13;;;;;;;21.90;19.70;;;18.60;1.00;;;;;;4981102;28;20499;-55
2022/09/11 10:24:02;;;;;;;20.93;18.93;;;18.50;1.00;;;;;;4980179;28;20463;-54
2022/09/11 10:26:44;;;;;;;21.13;18.93;;;18.50;1.00;;;;;;4973424;28;20453;-54
2022/09/11 10:29:28;;;;;;;21.80;19.50;;;18.30;1.00;;;;;;4980789;28;20871;-53
2022/09/11 10:31:56;;;;;;;20.07;18.07;;;18.30;1.00;;;;;;4988481;28;20416;-53
2022/09/11 10:34:24;;;;;;;18.20;16.40;;;18.30;1.00;;;;;;4987551;28;20448;-53
2022/09/11 10:37:04;;;;;;;19.70;17.70;;;18.50;1.00;;;;;;4984989;28;20988;-54
2022/09/11 10:39:33;;;;;;;22.53;20.13;;;18.40;1.00;;;;;;4990212;28;21072;-53
2022/09/11 10:42:10;;;;;;;21.27;19.03;;;18.40;1.00;;;;;;4986548;28;20882;-55
2022/09/11 10:44:41;;;;;;;19.53;17.63;;;18.30;1.00;;;;;;4988231;28;20453;-55
2022/09/11 10:47:24;;;;;;;17.60;15.93;;;18.50;1.00;;;;;;4991173;28;21009;-55
2022/09/11 10:50:11;;;;;;;18.20;16.30;;;18.50;1.00;;;;;;4990418;28;20749;-52
2022/09/11 10:52:56;;;;;;;17.40;15.60;;;18.60;1.00;;;;;;4987163;28;20425;-56
2022/09/11 10:55:25;;;;;;;16.23;14.63;;;18.70;1.00;;;;;;4992016;28;20917;-54
2022/09/11 10:57:52;;;;;;;16.47;14.70;;;18.70;1.00;;;;;;4991522;28;20452;-54
2022/09/11 11:00:20;;;;;;;15.97;14.47;;;18.80;1.00;;;;;;4991760;28;20455;-53
2022/09/11 11:02:49;;;;;;;15.10;13.60;;;18.80;1.00;;;;;;4989391;28;20435;-55
2022/09/11 11:05:21;;;;;;;15.53;13.93;;;18.80;1.00;;;;;;4990404;28;20427;-54
2022/09/11 11:07:49;;;;;;;15.80;13.73;;;19.00;1.00;;;;;;4995455;28;20456;-54
2022/09/11 11:11:07;;;;;;;14.30;12.80;;;18.90;1.00;;;;;;4987279;28;20481;-56
2022/09/11 11:13:55;;;;;;;13.33;12.13;;;18.80;1.00;;;;;;4985968;28;20427;-53
2022/09/11 11:16:44;;;;;;;15.27;12.37;;;18.70;1.00;;;;;;4990487;28;20448;-54
2022/09/11 11:19:30;;;;;;;13.07;11.73;;;18.60;1.00;;;;;;4990638;28;20423;-55
2022/09/11 11:22:22;;;;;;;15.53;14.00;;;18.50;1.00;;;;;;4986220;28;20456;-55
2022/09/11 11:25:24;;;;;;;12.97;11.70;;;18.60;1.00;;;;;;4942304;28;20436;-55
2022/09/11 11:27:52;;;;;;;13.60;12.23;;;18.40;1.00;;;;;;4960376;28;20467;-54
2022/09/11 11:30:39;;;;;;;13.17;11.80;;;18.40;1.00;;;;;;4991840;28;20484;-53
2022/09/11 11:33:27;;;;;;;14.97;13.47;;;18.40;1.00;;;;;;4983495;28;20457;-56
2022/09/11 11:36:14;;;;;;;18.57;13.03;;;18.30;1.00;;;;;;4989323;28;21080;-54
2022/09/11 11:38:51;;;;;;;15.40;13.27;;;18.10;1.00;;;;;;4988242;28;20426;-52
2022/09/11 11:41:29;;;;;;;15.10;13.50;;;18.00;1.00;;;;;;4991423;28;20481;-54
2022/09/11 11:43:56;;;;;;;15.53;13.93;;;18.00;1.00;;;;;;4991413;28;20461;-53
2022/09/11 11:46:30;;;;;;;15.13;13.57;;;17.90;1.00;;;;;;4990510;28;20528;-55
2022/09/11 11:49:04;;;;;;;13.83;12.47;;;17.80;1.00;;;;;;4990658;28;20477;-55
2022/09/11 11:51:40;;;;;;;16.20;14.60;;;17.90;1.00;;;;;;4989868;28;20576;-54
2022/09/11 11:54:16;;;;;;;15.80;14.10;;;18.00;1.00;;;;;;4976686;28;20797;-52
2022/09/11 11:57:03;;;;;;;16.93;15.23;;;17.90;1.00;;;;;;4989010;28;20428;-53
2022/09/11 11:59:48;;;;;;;16.67;14.23;;;18.00;1.00;;;;;;4988585;28;20435;-54
2022/09/11 12:02:24;;;;;;;14.60;13.07;;;18.00;1.00;;;;;;4988552;28;20465;-54
2022/09/11 12:05:19;;;;;;;15.47;12.50;;;18.00;1.00;;;;;;4990274;28;20480;-53
2022/09/11 12:07:46;;;;;;;14.00;12.60;;;18.00;1.00;;;;;;4994777;28;20432;-54
2022/09/11 12:10:40;;;;;;;13.83;12.43;;;18.20;1.00;;;;;;4989639;28;20541;-53
2022/09/11 12:13:11;;;;;;;12.77;11.53;;;18.30;1.00;;;;;;4986308;28;20452;-54
2022/09/11 12:15:38;;;;;;;12.87;11.60;;;18.20;1.00;;;;;;4987408;28;20424;-55
2022/09/11 12:18:21;;;;;;;14.60;13.10;;;18.40;1.00;;;;;;4970948;28;20461;-54
2022/09/11 12:20:47;;;;;;;14.80;13.40;;;18.40;1.00;;;;;;4989477;28;20446;-55
2022/09/11 12:23:32;;;;;;;16.40;14.60;;;18.50;1.00;;;;;;4987347;28;20423;-55
2022/09/11 12:26:07;;;;;;;16.60;13.40;;;18.60;1.00;;;;;;4992304;28;20189;-55
2022/09/11 12:28:34;;;;;;;14.00;12.47;;;18.70;1.00;;;;;;4988081;28;20491;-53
2022/09/11 12:31:12;;;;;;;15.70;13.57;;;18.70;1.00;;;;;;4991846;28;20420;-55
2022/09/11 12:33:41;;;;;;;17.07;14.27;;;18.80;1.00;;;;;;4989378;28;20435;-54
2022/09/11 12:36:12;;;;;;;15.53;13.70;;;18.80;1.00;;;;;;4991151;28;20460;-57
2022/09/11 12:38:43;;;;;;;14.77;13.13;;;18.80;1.00;;;;;;4976329;28;20463;-55
2022/09/11 12:41:26;;;;;;;14.63;13.17;;;18.80;1.00;;;;;;4991562;28;20464;-55
2022/09/11 12:43:53;;;;;;;15.20;13.77;;;18.70;1.00;;;;;;4989087;28;20452;-55
2022/09/11 12:46:22;;;;;;;15.83;14.07;;;18.50;1.00;;;;;;4989054;28;20560;-56
2022/09/11 12:48:49;;;;;;;18.27;13.97;;;18.40;1.00;;;;;;4989020;28;20495;-57
2022/09/11 12:51:26;;;;;;;13.87;12.57;;;18.40;1.00;;;;;;4990807;28;20431;-54
2022/09/11 12:53:59;;;;;;;15.37;13.77;;;18.30;1.00;;;;;;4985492;28;20458;-54
2022/09/11 12:56:28;;;;;;;15.80;13.13;;;18.30;1.00;;;;;;4987499;28;20487;-54
2022/09/11 12:59:03;;;;;;;14.70;13.17;;;18.40;1.00;;;;;;4985400;28;20419;-56
2022/09/11 13:01:43;;;;;;;16.37;13.50;;;18.40;1.00;;;;;;4985835;28;20538;-55
2022/09/11 13:04:14;;;;;;;15.80;12.70;;;18.40;1.00;;;;;;4987191;28;20448;-55
2022/09/11 13:06:46;;;;;;;16.47;12.77;;;18.60;1.00;;;;;;5003894;28;20458;-56
2022/09/11 13:09:21;;;;;;;12.70;11.50;;;18.80;1.00;;;;;;4987187;28;20471;-53
2022/09/11 13:11:50;;;;;;;13.13;11.73;;;18.80;1.00;;;;;;4992949;28;20448;-56
2022/09/11 13:14:27;;;;;;;13.30;11.90;;;19.00;1.00;;;;;;5001677;28;20412;-56
2022/09/11 13:17:11;;;;;;;13.53;12.23;;;18.90;1.00;;;;;;4990795;28;20776;-53